sensor_id;sensor_type;location;lat;lon;timestamp;pressure;altitude;pressure_sealevel;temperature;humidity
65329;BME280;51941;52.210;5.158;2022-12-20T00:00:51;101166.56;;;9.04;82.01
65329;BME280;51941;52.210;5.158;2022-12-20T00:03:18;101188.22;;;9.26;81.78
65329;BME280;51941;52.210;5.158;2022-12-20T00:05:46;101176.66;;;9.13;81.87
65329;BME280;51941;52.210;5.158;2022-12-20T00:08:14;101183.19;;;9.17;82.03
65329;BME280;51941;52.210;5.158;2022-12-20T00:10:42;101190.25;;;9.24;81.88
65329;BME280;51941;52.210;5.158;2022-12-20T00:13:10;101188.00;;;9.21;81.94
65329;BME280;51941;52.210;5.158;2022-12-20T00:15:38;101189.03;;;9.26;81.77
65329;BME280;51941;52.210;5.158;2022-12-20T00:18:04;101189.19;;;9.31;81.72
65329;BME280;51941;52.210;5.158;2022-12-20T00:20:31;101190.63;;;9.27;81.81
65329;BME280;51941;52.210;5.158;2022-12-20T00:22:58;101193.84;;;9.36;81.60
65329;BME280;51941;52.210;5.158;2022-12-20T00:25:26;101135.88;;;9.09;81.40
65329;BME280;51941;52.210;5.158;2022-12-20T00:27:53;101156.31;;;9.27;81.28
65329;BME280;51941;52.210;5.158;2022-12-20T00:30:20;101179.56;;;9.43;81.31
65329;BME280;51941;52.210;5.158;2022-12-20T00:32:47;101151.59;;;9.29;81.11
65329;BME280;51941;52.210;5.158;2022-12-20T00:35:14;101176.03;;;9.49;81.27
65329;BME280;51941;52.210;5.158;2022-12-20T00:37:41;101179.91;;;9.47;81.10
65329;BME280;51941;52.210;5.158;2022-12-20T00:40:08;101170.34;;;9.52;81.27
65329;BME280;51941;52.210;5.158;2022-12-20T00:42:36;101172.53;;;9.55;81.03
65329;BME280;51941;52.210;5.158;2022-12-20T00:45:04;101182.53;;;9.53;81.03
65329;BME280;51941;52.210;5.158;2022-12-20T00:47:31;101184.44;;;9.65;80.75
65329;BME280;51941;52.210;5.158;2022-12-20T00:49:57;101168.44;;;9.60;80.70
65329;BME280;51941;52.210;5.158;2022-12-20T00:52:24;101187.50;;;9.68;80.58
65329;BME280;51941;52.210;5.158;2022-12-20T00:54:51;101188.28;;;9.69;80.72
65329;BME280;51941;52.210;5.158;2022-12-20T00:57:18;101176.50;;;9.71;80.61
65329;BME280;51941;52.210;5.158;2022-12-20T00:59:46;101166.56;;;9.67;80.92
65329;BME280;51941;52.210;5.158;2022-12-20T01:02:12;101168.59;;;9.65;80.49
65329;BME280;51941;52.210;5.158;2022-12-20T01:04:39;101162.41;;;9.77;80.73
65329;BME280;51941;52.210;5.158;2022-12-20T01:07:07;101165.19;;;9.82;80.40
65329;BME280;51941;52.210;5.158;2022-12-20T01:09:35;101164.97;;;9.84;80.39
65329;BME280;51941;52.210;5.158;2022-12-20T01:12:02;101158.06;;;9.83;80.37
65329;BME280;51941;52.210;5.158;2022-12-20T01:14:29;101154.59;;;9.82;80.48
65329;BME280;51941;52.210;5.158;2022-12-20T01:16:57;101159.09;;;9.82;81.10
65329;BME280;51941;52.210;5.158;2022-12-20T01:19:24;101109.66;;;9.64;81.25
65329;BME280;51941;52.210;5.158;2022-12-20T01:21:51;101154.78;;;9.87;81.27
65329;BME280;51941;52.210;5.158;2022-12-20T01:24:18;101152.03;;;9.76;81.54
65329;BME280;51941;52.210;5.158;2022-12-20T01:26:45;101161.72;;;9.82;82.16
65329;BME280;51941;52.210;5.158;2022-12-20T01:29:13;101137.19;;;9.75;81.95
65329;BME280;51941;52.210;5.158;2022-12-20T01:31:41;101153.97;;;9.87;82.21
65329;BME280;51941;52.210;5.158;2022-12-20T01:34:09;101125.47;;;9.71;81.89
65329;BME280;51941;52.210;5.158;2022-12-20T01:36:37;101143.91;;;9.77;82.56
65329;BME280;51941;52.210;5.158;2022-12-20T01:39:06;101144.41;;;9.86;82.84
65329;BME280;51941;52.210;5.158;2022-12-20T01:41:35;101143.09;;;9.77;83.54
65329;BME280;51941;52.210;5.158;2022-12-20T01:44:03;101129.47;;;9.73;84.27
65329;BME280;51941;52.210;5.158;2022-12-20T01:46:32;101142.88;;;9.78;84.24
65329;BME280;51941;52.210;5.158;2022-12-20T01:49:02;101125.28;;;9.66;84.21
65329;BME280;51941;52.210;5.158;2022-12-20T01:51:34;101139.84;;;9.75;84.69
65329;BME280;51941;52.210;5.158;2022-12-20T01:54:05;101126.41;;;9.76;84.89
65329;BME280;51941;52.210;5.158;2022-12-20T01:56:34;101133.75;;;9.74;85.17
65329;BME280;51941;52.210;5.158;2022-12-20T01:59:02;101128.25;;;9.76;85.01
65329;BME280;51941;52.210;5.158;2022-12-20T02:01:29;101123.84;;;9.70;85.59
65329;BME280;51941;52.210;5.158;2022-12-20T02:03:56;101124.66;;;9.70;85.56
65329;BME280;51941;52.210;5.158;2022-12-20T02:06:24;101125.88;;;9.68;86.28
65329;BME280;51941;52.210;5.158;2022-12-20T02:08:57;101127.88;;;9.72;86.03
65329;BME280;51941;52.210;5.158;2022-12-20T02:14:36;101116.13;;;9.68;86.20
65329;BME280;51941;52.210;5.158;2022-12-20T02:17:11;101102.75;;;9.63;86.34
65329;BME280;51941;52.210;5.158;2022-12-20T02:20:06;101102.09;;;9.68;86.40
65329;BME280;51941;52.210;5.158;2022-12-20T02:22:51;101102.16;;;9.61;86.31
65329;BME280;51941;52.210;5.158;2022-12-20T02:25:41;101114.13;;;9.64;86.27
65329;BME280;51941;52.210;5.158;2022-12-20T02:28:20;101108.84;;;9.64;86.67
65329;BME280;51941;52.210;5.158;2022-12-20T02:30:54;101105.63;;;9.62;86.70
65329;BME280;51941;52.210;5.158;2022-12-20T02:33:24;101098.31;;;9.57;86.81
65329;BME280;51941;52.210;5.158;2022-12-20T02:35:53;101050.72;;;9.14;87.16
65329;BME280;51941;52.210;5.158;2022-12-20T02:38:26;101103.03;;;9.55;86.96
65329;BME280;51941;52.210;5.158;2022-12-20T02:40:57;101095.69;;;9.57;87.22
65329;BME280;51941;52.210;5.158;2022-12-20T02:43:25;101101.78;;;9.57;87.42
65329;BME280;51941;52.210;5.158;2022-12-20T02:46:12;101094.88;;;9.56;87.58
65329;BME280;51941;52.210;5.158;2022-12-20T02:48:40;101082.75;;;9.49;87.59
65329;BME280;51941;52.210;5.158;2022-12-20T02:51:08;101105.22;;;9.58;87.59
65329;BME280;51941;52.210;5.158;2022-12-20T02:53:35;101105.09;;;9.53;87.73
65329;BME280;51941;52.210;5.158;2022-12-20T02:56:07;101117.63;;;9.57;88.17
65329;BME280;51941;52.210;5.158;2022-12-20T02:58:43;101098.28;;;9.64;88.15
65329;BME280;51941;52.210;5.158;2022-12-20T03:01:18;101096.22;;;9.66;87.58
65329;BME280;51941;52.210;5.158;2022-12-20T03:03:47;101073.16;;;9.54;87.78
65329;BME280;51941;52.210;5.158;2022-12-20T03:06:15;101086.31;;;9.61;88.11
65329;BME280;51941;52.210;5.158;2022-12-20T03:08:42;101063.81;;;9.52;87.61
65329;BME280;51941;52.210;5.158;2022-12-20T03:11:09;101095.63;;;9.64;87.78
65329;BME280;51941;52.210;5.158;2022-12-20T03:13:36;101096.44;;;9.64;88.00
65329;BME280;51941;52.210;5.158;2022-12-20T03:16:07;101088.44;;;9.71;87.68
65329;BME280;51941;52.210;5.158;2022-12-20T03:18:36;101089.06;;;9.73;87.53
65329;BME280;51941;52.210;5.158;2022-12-20T03:21:03;101079.50;;;9.72;87.59
65329;BME280;51941;52.210;5.158;2022-12-20T03:23:30;101096.81;;;9.68;87.85
65329;BME280;51941;52.210;5.158;2022-12-20T03:25:57;101053.53;;;9.44;87.55
65329;BME280;51941;52.210;5.158;2022-12-20T03:28:30;101094.16;;;9.68;87.77
65329;BME280;51941;52.210;5.158;2022-12-20T03:30:57;101080.53;;;9.71;87.82
65329;BME280;51941;52.210;5.158;2022-12-20T03:33:24;101085.06;;;9.64;87.94
65329;BME280;51941;52.210;5.158;2022-12-20T03:35:53;101094.47;;;9.78;87.73
65329;BME280;51941;52.210;5.158;2022-12-20T03:38:20;101092.22;;;9.81;87.65
65329;BME280;51941;52.210;5.158;2022-12-20T03:40:46;101077.72;;;9.84;87.40
65329;BME280;51941;52.210;5.158;2022-12-20T03:43:17;101080.09;;;9.92;87.11
65329;BME280;51941;52.210;5.158;2022-12-20T03:45:44;101079.28;;;9.91;87.29
65329;BME280;51941;52.210;5.158;2022-12-20T03:48:11;101070.31;;;9.92;86.92
65329;BME280;51941;52.210;5.158;2022-12-20T03:50:37;101052.19;;;9.78;86.88
65329;BME280;51941;52.210;5.158;2022-12-20T03:53:06;101070.19;;;9.87;87.05
65329;BME280;51941;52.210;5.158;2022-12-20T03:55:33;101068.84;;;9.78;87.24
65329;BME280;51941;52.210;5.158;2022-12-20T03:57:59;101058.78;;;9.69;87.23
65329;BME280;51941;52.210;5.158;2022-12-20T04:00:31;101055.97;;;9.82;87.30
65329;BME280;51941;52.210;5.158;2022-12-20T04:03:17;101067.81;;;9.79;87.27
65329;BME280;51941;52.210;5.158;2022-12-20T04:05:44;101062.59;;;9.91;87.18
65329;BME280;51941;52.210;5.158;2022-12-20T04:08:12;101044.84;;;9.80;86.90
65329;BME280;51941;52.210;5.158;2022-12-20T04:10:39;101054.38;;;9.81;86.77
65329;BME280;51941;52.210;5.158;2022-12-20T04:13:20;101054.75;;;9.84;86.80
65329;BME280;51941;52.210;5.158;2022-12-20T04:15:47;101050.69;;;9.82;86.79
65329;BME280;51941;52.210;5.158;2022-12-20T04:18:16;101050.44;;;9.90;86.42
65329;BME280;51941;52.210;5.158;2022-12-20T04:20:45;101051.66;;;9.87;86.29
65329;BME280;51941;52.210;5.158;2022-12-20T04:23:23;101046.00;;;9.84;86.70
65329;BME280;51941;52.210;5.158;2022-12-20T04:25:50;101038.88;;;9.84;86.62
65329;BME280;51941;52.210;5.158;2022-12-20T04:28:17;101046.31;;;9.94;86.45
65329;BME280;51941;52.210;5.158;2022-12-20T04:30:44;101037.34;;;9.95;86.56
65329;BME280;51941;52.210;5.158;2022-12-20T04:33:16;101031.25;;;9.94;86.62
65329;BME280;51941;52.210;5.158;2022-12-20T04:35:43;101011.50;;;9.79;86.53
65329;BME280;51941;52.210;5.158;2022-12-20T04:38:11;101032.78;;;10.02;86.46
65329;BME280;51941;52.210;5.158;2022-12-20T04:40:39;101032.84;;;10.14;86.16
65329;BME280;51941;52.210;5.158;2022-12-20T04:43:07;101034.38;;;10.21;86.12
65329;BME280;51941;52.210;5.158;2022-12-20T04:45:33;101034.38;;;10.21;86.05
65329;BME280;51941;52.210;5.158;2022-12-20T04:48:01;101030.59;;;10.29;85.87
65329;BME280;51941;52.210;5.158;2022-12-20T04:50:34;101034.16;;;10.23;85.88
65329;BME280;51941;52.210;5.158;2022-12-20T04:53:01;101041.19;;;10.29;85.75
65329;BME280;51941;52.210;5.158;2022-12-20T04:55:48;101025.47;;;10.34;85.59
65329;BME280;51941;52.210;5.158;2022-12-20T04:58:16;101021.75;;;10.23;85.54
65329;BME280;51941;52.210;5.158;2022-12-20T05:00:43;101029.25;;;10.38;85.97
65329;BME280;51941;52.210;5.158;2022-12-20T05:03:24;101027.66;;;10.37;85.94
65329;BME280;51941;52.210;5.158;2022-12-20T05:05:51;101032.84;;;10.44;86.01
65329;BME280;51941;52.210;5.158;2022-12-20T05:08:19;100989.63;;;10.20;85.88
65329;BME280;51941;52.210;5.158;2022-12-20T05:10:50;101024.56;;;10.40;86.63
65329;BME280;51941;52.210;5.158;2022-12-20T05:13:17;101002.44;;;10.35;86.12
65329;BME280;51941;52.210;5.158;2022-12-20T05:15:50;101010.91;;;10.43;86.33
65329;BME280;51941;52.210;5.158;2022-12-20T05:18:21;101008.09;;;10.38;86.78
65329;BME280;51941;52.210;5.158;2022-12-20T05:21:05;101007.00;;;10.27;87.68
65329;BME280;51941;52.210;5.158;2022-12-20T05:23:51;100998.53;;;10.25;87.78
65329;BME280;51941;52.210;5.158;2022-12-20T05:26:54;100994.38;;;10.29;88.08
65329;BME280;51941;52.210;5.158;2022-12-20T05:29:21;100988.97;;;10.24;88.61
65329;BME280;51941;52.210;5.158;2022-12-20T05:31:48;100995.88;;;10.25;88.86
65329;BME280;51941;52.210;5.158;2022-12-20T05:34:15;100985.84;;;10.27;88.81
65329;BME280;51941;52.210;5.158;2022-12-20T05:36:47;100983.22;;;10.27;88.85
65329;BME280;51941;52.210;5.158;2022-12-20T05:39:14;100981.16;;;10.29;88.78
65329;BME280;51941;52.210;5.158;2022-12-20T05:41:44;100911.31;;;9.89;88.72
65329;BME280;51941;52.210;5.158;2022-12-20T05:44:12;100971.38;;;10.30;88.79
65329;BME280;51941;52.210;5.158;2022-12-20T05:46:43;100965.06;;;10.31;88.81
65329;BME280;51941;52.210;5.158;2022-12-20T05:49:14;100959.88;;;10.24;89.45
65329;BME280;51941;52.210;5.158;2022-12-20T05:51:42;100955.72;;;10.28;89.55
65329;BME280;51941;52.210;5.158;2022-12-20T05:54:19;100963.66;;;10.28;89.45
65329;BME280;51941;52.210;5.158;2022-12-20T05:56:55;100929.19;;;10.05;89.43
65329;BME280;51941;52.210;5.158;2022-12-20T05:59:31;100954.81;;;10.35;89.57
65329;BME280;51941;52.210;5.158;2022-12-20T06:01:58;100960.56;;;10.31;89.89
65329;BME280;51941;52.210;5.158;2022-12-20T06:04:25;100956.56;;;10.41;89.47
65329;BME280;51941;52.210;5.158;2022-12-20T06:06:52;100950.16;;;10.48;88.83
65329;BME280;51941;52.210;5.158;2022-12-20T06:09:19;100950.38;;;10.47;89.14
65329;BME280;51941;52.210;5.158;2022-12-20T06:11:57;100952.44;;;10.45;89.26
65329;BME280;51941;52.210;5.158;2022-12-20T06:14:25;100960.94;;;10.47;89.14
65329;BME280;51941;52.210;5.158;2022-12-20T06:16:55;100951.75;;;10.49;88.99
65329;BME280;51941;52.210;5.158;2022-12-20T06:19:22;100967.41;;;10.51;88.90
65329;BME280;51941;52.210;5.158;2022-12-20T06:21:52;100965.59;;;10.51;88.84
65329;BME280;51941;52.210;5.158;2022-12-20T06:24:26;100957.97;;;10.55;88.72
65329;BME280;51941;52.210;5.158;2022-12-20T06:26:53;100957.88;;;10.61;88.45
65329;BME280;51941;52.210;5.158;2022-12-20T06:29:20;100954.06;;;10.57;88.32
65329;BME280;51941;52.210;5.158;2022-12-20T06:31:52;100956.03;;;10.62;88.04
65329;BME280;51941;52.210;5.158;2022-12-20T06:34:21;100958.22;;;10.65;87.76
65329;BME280;51941;52.210;5.158;2022-12-20T06:36:48;100952.28;;;10.69;87.49
65329;BME280;51941;52.210;5.158;2022-12-20T06:39:19;100959.25;;;10.64;87.61
65329;BME280;51941;52.210;5.158;2022-12-20T06:42:01;100958.69;;;10.62;87.17
65329;BME280;51941;52.210;5.158;2022-12-20T06:44:28;100928.16;;;10.48;87.21
65329;BME280;51941;52.210;5.158;2022-12-20T06:46:54;100949.84;;;10.68;87.07
65329;BME280;51941;52.210;5.158;2022-12-20T06:49:23;100947.53;;;10.60;86.71
65329;BME280;51941;52.210;5.158;2022-12-20T06:51:50;100963.16;;;10.61;86.85
65329;BME280;51941;52.210;5.158;2022-12-20T06:54:22;100952.81;;;10.60;86.50
65329;BME280;51941;52.210;5.158;2022-12-20T06:56:49;100945.22;;;10.52;86.19
65329;BME280;51941;52.210;5.158;2022-12-20T06:59:16;100955.09;;;10.56;86.46
65329;BME280;51941;52.210;5.158;2022-12-20T07:01:43;100958.34;;;10.58;86.23
65329;BME280;51941;52.210;5.158;2022-12-20T07:04:09;100935.88;;;10.49;86.13
65329;BME280;51941;52.210;5.158;2022-12-20T07:06:37;100950.63;;;10.57;86.02
65329;BME280;51941;52.210;5.158;2022-12-20T07:09:04;100952.00;;;10.59;86.03
65329;BME280;51941;52.210;5.158;2022-12-20T07:11:31;100959.00;;;10.54;85.78
65329;BME280;51941;52.210;5.158;2022-12-20T07:13:58;100952.81;;;10.60;85.59
65329;BME280;51941;52.210;5.158;2022-12-20T07:16:24;100956.72;;;10.57;85.75
65329;BME280;51941;52.210;5.158;2022-12-20T07:18:52;100950.25;;;10.53;85.45
65329;BME280;51941;52.210;5.158;2022-12-20T07:21:20;100951.75;;;10.61;85.47
65329;BME280;51941;52.210;5.158;2022-12-20T07:23:48;100954.88;;;10.58;85.17
65329;BME280;51941;52.210;5.158;2022-12-20T07:26:15;100919.53;;;10.41;85.08
65329;BME280;51941;52.210;5.158;2022-12-20T07:28:42;100951.22;;;10.59;84.93
65329;BME280;51941;52.210;5.158;2022-12-20T07:31:09;100956.03;;;10.62;84.93
65329;BME280;51941;52.210;5.158;2022-12-20T07:33:36;100961.69;;;10.65;84.74
65329;BME280;51941;52.210;5.158;2022-12-20T07:36:04;100931.41;;;10.50;84.68
65329;BME280;51941;52.210;5.158;2022-12-20T07:38:31;100953.28;;;10.68;84.33
65329;BME280;51941;52.210;5.158;2022-12-20T07:41:05;100954.09;;;10.69;84.10
65329;BME280;51941;52.210;5.158;2022-12-20T07:43:32;100957.00;;;10.79;84.15
65329;BME280;51941;52.210;5.158;2022-12-20T07:46:00;100944.19;;;10.64;83.72
65329;BME280;51941;52.210;5.158;2022-12-20T07:48:27;100955.75;;;10.82;83.59
65329;BME280;51941;52.210;5.158;2022-12-20T07:50:56;100957.59;;;10.81;83.63
65329;BME280;51941;52.210;5.158;2022-12-20T07:53:26;100946.97;;;10.69;83.49
65329;BME280;51941;52.210;5.158;2022-12-20T07:55:54;100954.34;;;10.79;83.62
65329;BME280;51941;52.210;5.158;2022-12-20T07:58:23;100963.03;;;10.86;83.52
65329;BME280;51941;52.210;5.158;2022-12-20T08:00:50;100974.88;;;10.84;83.58
65329;BME280;51941;52.210;5.158;2022-12-20T08:03:20;100964.50;;;10.82;83.71
65329;BME280;51941;52.210;5.158;2022-12-20T08:05:51;100967.25;;;10.76;83.88
65329;BME280;51941;52.210;5.158;2022-12-20T08:08:19;100960.34;;;10.75;84.08
65329;BME280;51941;52.210;5.158;2022-12-20T08:10:47;100966.66;;;10.74;84.09
65329;BME280;51941;52.210;5.158;2022-12-20T08:13:14;100965.72;;;10.68;84.61
65329;BME280;51941;52.210;5.158;2022-12-20T08:15:43;100965.81;;;10.61;85.04
65329;BME280;51941;52.210;5.158;2022-12-20T08:18:09;100951.63;;;10.44;85.79
65329;BME280;51941;52.210;5.158;2022-12-20T08:20:36;100957.50;;;10.46;86.15
65329;BME280;51941;52.210;5.158;2022-12-20T08:23:03;100961.22;;;10.57;85.83
65329;BME280;51941;52.210;5.158;2022-12-20T08:25:29;100965.59;;;10.51;85.86
65329;BME280;51941;52.210;5.158;2022-12-20T08:27:56;100964.78;;;10.51;86.05
65329;BME280;51941;52.210;5.158;2022-12-20T08:30:26;100963.50;;;10.53;85.77
65329;BME280;51941;52.210;5.158;2022-12-20T08:32:54;100968.09;;;10.46;86.17
65329;BME280;51941;52.210;5.158;2022-12-20T08:35:21;100967.75;;;10.43;86.34
65329;BME280;51941;52.210;5.158;2022-12-20T08:37:50;100906.91;;;10.13;86.31
65329;BME280;51941;52.210;5.158;2022-12-20T08:40:17;100958.91;;;10.49;86.40
65329;BME280;51941;52.210;5.158;2022-12-20T08:42:43;100952.56;;;10.50;nan
65329;BME280;51941;52.210;5.158;2022-12-20T08:45:10;100950.94;;;10.49;86.08
65329;BME280;51941;52.210;5.158;2022-12-20T08:47:38;100963.16;;;10.50;86.20
65329;BME280;51941;52.210;5.158;2022-12-20T08:50:07;100921.09;;;10.30;nan
65329;BME280;51941;52.210;5.158;2022-12-20T08:52:34;100955.56;;;10.53;86.36
65329;BME280;51941;52.210;5.158;2022-12-20T08:55:01;100955.81;;;10.52;86.30
65329;BME280;51941;52.210;5.158;2022-12-20T08:57:27;100949.59;;;10.58;86.10
65329;BME280;51941;52.210;5.158;2022-12-20T08:59:54;100946.31;;;10.44;86.17
65329;BME280;51941;52.210;5.158;2022-12-20T09:02:21;100950.72;;;10.50;86.14
65329;BME280;51941;52.210;5.158;2022-12-20T09:04:48;100957.88;;;10.61;86.05
65329;BME280;51941;52.210;5.158;2022-12-20T09:07:16;100954.66;;;10.59;85.91
65329;BME280;51941;52.210;5.158;2022-12-20T09:09:42;100957.31;;;10.59;86.03
65329;BME280;51941;52.210;5.158;2022-12-20T09:12:09;100960.06;;;10.64;85.88
65329;BME280;51941;52.210;5.158;2022-12-20T09:14:36;100940.38;;;10.49;85.76
65329;BME280;51941;52.210;5.158;2022-12-20T09:17:03;100962.25;;;10.56;86.04
65329;BME280;51941;52.210;5.158;2022-12-20T09:19:30;100963.16;;;10.61;85.87
65329;BME280;51941;52.210;5.158;2022-12-20T09:21:57;100968.13;;;10.58;86.26
65329;BME280;51941;52.210;5.158;2022-12-20T09:24:25;100961.78;;;10.59;86.10
65329;BME280;51941;52.210;5.158;2022-12-20T09:26:52;100962.94;;;10.51;86.52
65329;BME280;51941;52.210;5.158;2022-12-20T09:29:19;100950.69;;;10.39;87.14
65329;BME280;51941;52.210;5.158;2022-12-20T09:31:48;100922.81;;;10.24;87.16
65329;BME280;51941;52.210;5.158;2022-12-20T09:34:15;100944.09;;;10.29;87.51
65329;BME280;51941;52.210;5.158;2022-12-20T09:36:42;100963.81;;;10.45;87.81
65329;BME280;51941;52.210;5.158;2022-12-20T09:39:09;100969.59;;;10.42;87.91
65329;BME280;51941;52.210;5.158;2022-12-20T09:41:39;100970.13;;;10.44;88.01
65329;BME280;51941;52.210;5.158;2022-12-20T09:44:13;100972.56;;;10.46;87.94
65329;BME280;51941;52.210;5.158;2022-12-20T09:46:41;100981.53;;;10.45;88.28
65329;BME280;51941;52.210;5.158;2022-12-20T09:49:12;100972.13;;;10.49;87.86
65329;BME280;51941;52.210;5.158;2022-12-20T09:51:48;100969.91;;;10.46;88.34
65329;BME280;51941;52.210;5.158;2022-12-20T09:54:27;100960.84;;;10.42;88.86
65329;BME280;51941;52.210;5.158;2022-12-20T09:57:03;100927.19;;;10.30;88.87
65329;BME280;51941;52.210;5.158;2022-12-20T09:59:34;100950.72;;;10.50;88.80
65329;BME280;51941;52.210;5.158;2022-12-20T10:02:01;100964.78;;;10.51;88.90
65329;BME280;51941;52.210;5.158;2022-12-20T10:04:34;100970.06;;;10.51;89.07
65329;BME280;51941;52.210;5.158;2022-12-20T10:07:17;100961.75;;;10.47;89.62
65329;BME280;51941;52.210;5.158;2022-12-20T10:10:08;100961.66;;;10.54;89.38
65329;BME280;51941;52.210;5.158;2022-12-20T10:12:47;100956.50;;;10.59;89.48
65329;BME280;51941;52.210;5.158;2022-12-20T10:15:20;100958.22;;;10.65;89.59
65329;BME280;51941;52.210;5.158;2022-12-20T10:20:57;100943.13;;;10.54;90.12
65329;BME280;51941;52.210;5.158;2022-12-20T10:23:31;100957.19;;;10.66;90.29
65329;BME280;51941;52.210;5.158;2022-12-20T10:25:59;100964.56;;;10.64;90.77
65329;BME280;51941;52.210;5.158;2022-12-20T10:28:29;100956.16;;;10.67;90.52
65329;BME280;51941;52.210;5.158;2022-12-20T10:30:59;100928.06;;;10.54;90.60
65329;BME280;51941;52.210;5.158;2022-12-20T10:33:27;100951.69;;;10.67;90.75
65329;BME280;51941;52.210;5.158;2022-12-20T10:36:21;100953.41;;;10.74;90.53
65329;BME280;51941;52.210;5.158;2022-12-20T10:38:51;100939.97;;;10.75;90.42
65329;BME280;51941;52.210;5.158;2022-12-20T10:41:20;100933.25;;;10.73;90.86
65329;BME280;51941;52.210;5.158;2022-12-20T10:43:51;100934.47;;;10.77;90.42
65329;BME280;51941;52.210;5.158;2022-12-20T10:46:19;100929.00;;;10.72;90.75
65329;BME280;51941;52.210;5.158;2022-12-20T10:48:47;100939.97;;;10.75;90.97
65329;BME280;51941;52.210;5.158;2022-12-20T10:51:18;100928.69;;;10.80;90.55
65329;BME280;51941;52.210;5.158;2022-12-20T10:53:55;100932.13;;;10.80;90.62
65329;BME280;51941;52.210;5.158;2022-12-20T10:56:23;100931.00;;;10.76;90.92
65329;BME280;51941;52.210;5.158;2022-12-20T10:58:55;100925.72;;;10.76;90.92
65329;BME280;51941;52.210;5.158;2022-12-20T11:01:25;100927.31;;;10.77;90.85
65329;BME280;51941;52.210;5.158;2022-12-20T11:03:55;100926.03;;;10.80;90.82
65329;BME280;51941;52.210;5.158;2022-12-20T11:06:23;100923.97;;;10.82;90.70
65329;BME280;51941;52.210;5.158;2022-12-20T11:08:50;100919.25;;;10.84;90.46
65329;BME280;51941;52.210;5.158;2022-12-20T11:11:19;100920.41;;;10.88;90.17
65329;BME280;51941;52.210;5.158;2022-12-20T11:13:50;100928.00;;;10.84;90.35
65329;BME280;51941;52.210;5.158;2022-12-20T11:16:28;100914.78;;;10.84;90.58
65329;BME280;51941;52.210;5.158;2022-12-20T11:19:06;100916.03;;;10.82;91.07
65329;BME280;51941;52.210;5.158;2022-12-20T11:21:46;100896.19;;;10.73;91.40
65329;BME280;51941;52.210;5.158;2022-12-20T11:24:21;100898.25;;;10.70;91.29
65329;BME280;51941;52.210;5.158;2022-12-20T11:27:05;100923.84;;;10.88;91.45
65329;BME280;51941;52.210;5.158;2022-12-20T11:30:11;100932.94;;;10.81;91.39
65329;BME280;51941;52.210;5.158;2022-12-20T11:32:54;100921.53;;;10.80;92.02
65329;BME280;51941;52.210;5.158;2022-12-20T11:35:32;100916.97;;;10.87;91.47
65329;BME280;51941;52.210;5.158;2022-12-20T11:38:09;100911.19;;;10.90;91.41
65329;BME280;51941;52.210;5.158;2022-12-20T11:40:43;100911.19;;;10.90;91.32
65329;BME280;51941;52.210;5.158;2022-12-20T11:43:39;100911.19;;;10.90;91.36
65329;BME280;51941;52.210;5.158;2022-12-20T11:46:20;100901.84;;;10.88;91.47
65329;BME280;51941;52.210;5.158;2022-12-20T11:49:12;100907.50;;;10.91;91.44
65329;BME280;51941;52.210;5.158;2022-12-20T11:51:45;100919.13;;;10.90;91.34
65329;BME280;51941;52.210;5.158;2022-12-20T11:54:18;100910.06;;;10.86;91.78
65329;BME280;51941;52.210;5.158;2022-12-20T11:56:50;100913.03;;;10.90;91.56
65329;BME280;51941;52.210;5.158;2022-12-20T11:59:30;100910.16;;;10.91;91.54
65329;BME280;51941;52.210;5.158;2022-12-20T12:02:04;100908.09;;;10.93;91.66
65329;BME280;51941;52.210;5.158;2022-12-20T12:04:37;100904.88;;;10.91;91.55
65329;BME280;51941;52.210;5.158;2022-12-20T12:07:10;100912.47;;;10.99;91.23
65329;BME280;51941;52.210;5.158;2022-12-20T12:09:51;100856.38;;;10.67;91.19
65329;BME280;51941;52.210;5.158;2022-12-20T12:12:23;100911.44;;;11.00;90.92
65329;BME280;51941;52.210;5.158;2022-12-20T12:14:52;100910.63;;;11.00;91.09
65329;BME280;51941;52.210;5.158;2022-12-20T12:17:26;100897.97;;;11.02;90.95
65329;BME280;51941;52.210;5.158;2022-12-20T12:20:03;100901.41;;;11.02;90.97
65329;BME280;51941;52.210;5.158;2022-12-20T12:22:34;100895.66;;;10.94;91.31
65329;BME280;51941;52.210;5.158;2022-12-20T12:25:08;100900.72;;;10.95;91.49
65329;BME280;51941;52.210;5.158;2022-12-20T12:27:39;100896.69;;;10.93;91.65
65329;BME280;51941;52.210;5.158;2022-12-20T12:30:11;100903.13;;;10.97;91.33
65329;BME280;51941;52.210;5.158;2022-12-20T12:32:40;100891.41;;;10.93;91.42
65329;BME280;51941;52.210;5.158;2022-12-20T12:35:22;100900.25;;;10.98;91.45
65329;BME280;51941;52.210;5.158;2022-12-20T12:38:14;100894.84;;;10.93;91.74
65329;BME280;51941;52.210;5.158;2022-12-20T12:40:59;100894.38;;;10.96;91.52
65329;BME280;51941;52.210;5.158;2022-12-20T12:43:47;100898.75;;;11.02;91.30
65329;BME280;51941;52.210;5.158;2022-12-20T12:46:21;100892.19;;;11.05;90.89
65329;BME280;51941;52.210;5.158;2022-12-20T12:48:53;100895.88;;;11.04;91.08
65329;BME280;51941;52.210;5.158;2022-12-20T12:51:26;100885.97;;;10.99;90.85
65329;BME280;51941;52.210;5.158;2022-12-20T12:54:02;100896.13;;;11.02;91.17
65329;BME280;51941;52.210;5.158;2022-12-20T12:56:38;100877.25;;;10.87;91.00
65329;BME280;51941;52.210;5.158;2022-12-20T13:02:33;100904.28;;;11.01;91.36
65329;BME280;51941;52.210;5.158;2022-12-20T13:08:14;100902.31;;;10.96;91.85
65329;BME280;51941;52.210;5.158;2022-12-20T13:11:10;100906.13;;;11.00;91.45
65329;BME280;51941;52.210;5.158;2022-12-20T13:13:37;100898.75;;;11.02;91.33
65329;BME280;51941;52.210;5.158;2022-12-20T13:16:12;100898.75;;;11.02;91.23
65329;BME280;51941;52.210;5.158;2022-12-20T13:18:59;100900.59;;;11.02;91.34
65329;BME280;51941;52.210;5.158;2022-12-20T13:21:35;100899.66;;;11.08;91.38
65329;BME280;51941;52.210;5.158;2022-12-20T13:27:38;100906.81;;;11.07;91.41